Pellston, Michigan
Current Conditions -  °F | °C
As of 7:54 PM on Monday 20 Oct 2014 (Local Time) from KPLN Reporting Station
Overcast Overcast  
Wind Chill: 41°   Ceiling: 1200
Heat Index: 47°   Visibility: 10mi
Dew Point: 43°   Wind: 14mph
Humidity: 86%   Direction: 330°NNW
Pressure: 29.89"   Gusts: NA
Location:  45.55°N, 84.78°W
Report Text: KPLN 202354Z AUTO 33012KT 10SM OVC012 08/06 A2989 RMK AO2 SLP124 T00830061 10100 20083 52021
Loading
Personal Weather Stations






























Interactive Weather Map
Tropical Storm Tracking
New forecast layout! Learn more

10-Day Weather Forecast

Advertisements
Track Severe Weather on mobile